createdAt,value
2018-05-02T00:00:25.695Z,4.3
2018-05-02T00:01:28.081Z,4.2
2018-05-02T00:02:30.442Z,4.2
2018-05-02T00:03:32.818Z,4.1
2018-05-02T00:04:35.270Z,4
2018-05-02T00:05:37.568Z,4
2018-05-02T00:06:40.393Z,4.1
2018-05-02T00:07:42.842Z,4.1
2018-05-02T00:08:45.611Z,4.1
2018-05-02T00:09:48.471Z,4.1
2018-05-02T00:10:50.858Z,4
2018-05-02T00:11:53.286Z,3.9
2018-05-02T00:12:56.279Z,3.9
2018-05-02T00:13:58.665Z,3.9
2018-05-02T00:15:01.032Z,3.8
2018-05-02T00:16:03.692Z,3.9
2018-05-02T00:17:06.354Z,3.9
2018-05-02T00:18:08.839Z,3.9
2018-05-02T00:19:11.104Z,3.8
2018-05-02T00:20:13.483Z,3.8
2018-05-02T00:21:15.861Z,3.9
2018-05-02T00:22:18.234Z,3.8
2018-05-02T00:23:20.610Z,3.8
2018-05-02T00:24:22.984Z,3.8
2018-05-02T00:25:25.763Z,3.7
2018-05-02T00:26:28.147Z,3.7
2018-05-02T00:27:30.790Z,3.7
2018-05-02T00:28:33.152Z,3.6
2018-05-02T00:29:36.201Z,3.6
2018-05-02T00:30:38.572Z,3.6
2018-05-02T00:31:40.946Z,3.5
2018-05-02T00:32:43.604Z,3.6
2018-05-02T00:33:45.979Z,3.5
2018-05-02T00:34:48.350Z,3.5
2018-05-02T00:35:50.733Z,3.6
2018-05-02T00:36:53.104Z,3.6
2018-05-02T00:37:55.500Z,3.5
2018-05-02T00:38:57.868Z,3.5
2018-05-02T00:40:00.523Z,3.5
2018-05-02T00:41:02.906Z,3.5
2018-05-02T00:42:05.280Z,3.4
2018-05-02T00:43:07.646Z,3.4
2018-05-02T00:44:10.013Z,3.4
2018-05-02T00:45:12.391Z,3.3
2018-05-02T00:46:15.150Z,3.4
2018-05-02T00:47:17.521Z,3.5
2018-05-02T00:48:19.894Z,3.4
2018-05-02T00:49:22.554Z,3.4
2018-05-02T00:50:24.924Z,3.4
2018-05-02T00:51:27.324Z,3.3
2018-05-02T00:52:29.684Z,3.3
2018-05-02T00:53:32.063Z,3.2
2018-05-02T00:54:34.439Z,3.2
2018-05-02T00:55:36.807Z,3.2
2018-05-02T00:56:39.565Z,3.2
2018-05-02T00:57:41.939Z,3.2
2018-05-02T00:58:44.308Z,3.2
2018-05-02T00:59:46.682Z,3.2
2018-05-02T01:00:49.047Z,3.2
2018-05-02T01:01:51.418Z,3.1
2018-05-02T01:02:54.073Z,3.1
2018-05-02T01:03:56.455Z,3.1
2018-05-02T01:04:58.832Z,3.1
2018-05-02T01:06:01.507Z,3.1
2018-05-02T01:07:04.183Z,3.1
2018-05-02T01:08:06.853Z,3.1
2018-05-02T01:09:09.235Z,3
2018-05-02T01:10:11.908Z,3
2018-05-02T01:11:14.549Z,3
2018-05-02T01:12:16.925Z,2.9
2018-05-02T01:13:19.574Z,2.9
2018-05-02T01:14:21.946Z,2.8
2018-05-02T01:15:24.322Z,2.8
2018-05-02T01:16:26.710Z,2.8
2018-05-02T01:17:29.378Z,2.8
2018-05-02T01:18:31.761Z,2.7
2018-05-02T01:19:34.149Z,2.7
2018-05-02T01:20:36.529Z,2.7
2018-05-02T01:21:38.900Z,2.7
2018-05-02T01:22:41.284Z,2.6
2018-05-02T01:23:43.990Z,2.6
2018-05-02T01:24:46.365Z,2.6
2018-05-02T01:25:49.039Z,2.6
2018-05-02T01:26:51.688Z,2.5
2018-05-02T01:27:54.068Z,2.5
2018-05-02T01:28:56.815Z,2.5
2018-05-02T01:29:59.191Z,2.5
2018-05-02T01:31:01.558Z,2.4
2018-05-02T01:32:03.948Z,2.4
2018-05-02T01:33:06.607Z,2.3
2018-05-02T01:34:08.988Z,2.3
2018-05-02T01:35:11.682Z,2.3
2018-05-02T01:36:14.046Z,2.3
2018-05-02T01:37:16.425Z,2.3
2018-05-02T01:38:18.807Z,2.2
2018-05-02T01:39:21.462Z,2.2
2018-05-02T01:40:23.837Z,2.2
2018-05-02T01:41:26.210Z,2.2
2018-05-02T01:42:28.881Z,2.2
2018-05-02T01:43:31.265Z,2.2
2018-05-02T01:44:33.647Z,2.2
2018-05-02T01:45:36.020Z,2.1
2018-05-02T01:46:38.682Z,2.1
2018-05-02T01:47:41.056Z,2.1
2018-05-02T01:48:43.426Z,2.1
2018-05-02T01:49:45.815Z,2.1
2018-05-02T01:50:48.169Z,2.1
2018-05-02T01:51:50.543Z,2
2018-05-02T01:52:52.911Z,2
2018-05-02T01:53:55.279Z,2
2018-05-02T01:54:57.659Z,2.1
2018-05-02T01:56:00.032Z,2.1
2018-05-02T01:57:02.400Z,2.1
2018-05-02T01:58:05.061Z,2.1
2018-05-02T01:59:07.711Z,2.1
2018-05-02T02:00:10.085Z,2.1
2018-05-02T02:01:12.468Z,2.1
2018-05-02T02:02:14.842Z,2.1
2018-05-02T02:03:17.497Z,2.1
2018-05-02T02:04:19.873Z,2.1
2018-05-02T02:05:22.545Z,2
2018-05-02T02:06:24.917Z,2
2018-05-02T02:07:27.670Z,1.9
2018-05-02T02:08:30.028Z,1.9
2018-05-02T02:09:32.416Z,1.9
2018-05-02T02:10:34.779Z,1.9
2018-05-02T02:11:37.157Z,1.8
2018-05-02T02:12:39.910Z,1.9
2018-05-02T02:13:42.287Z,1.9
2018-05-02T02:14:44.660Z,1.9
2018-05-02T02:15:47.013Z,1.9
2018-05-02T02:16:49.393Z,1.8
2018-05-02T02:17:51.759Z,1.8
2018-05-02T02:18:54.123Z,1.8
2018-05-02T02:19:56.503Z,1.8
2018-05-02T02:20:59.146Z,1.8
2018-05-02T02:22:01.797Z,1.8
2018-05-02T02:23:04.182Z,1.8
2018-05-02T02:24:06.837Z,1.8
2018-05-02T02:25:09.213Z,1.8
2018-05-02T02:26:11.586Z,1.8
2018-05-02T02:27:13.965Z,1.8
2018-05-02T02:28:16.337Z,1.8
2018-05-02T02:29:18.993Z,1.8
2018-05-02T02:30:21.751Z,1.8
2018-05-02T02:31:24.126Z,1.8
2018-05-02T02:32:27.180Z,1.7
2018-05-02T02:33:29.836Z,1.7
2018-05-02T02:34:32.208Z,1.7
2018-05-02T02:35:34.865Z,1.7
2018-05-02T02:36:38.299Z,1.7
2018-05-02T02:37:41.330Z,1.7
2018-05-02T02:38:43.707Z,1.7
2018-05-02T02:39:46.377Z,1.7
2018-05-02T02:40:49.057Z,1.7
2018-05-02T02:41:51.715Z,1.7
2018-05-02T02:42:54.088Z,1.7
2018-05-02T02:43:56.468Z,1.8
2018-05-02T02:44:59.120Z,1.8
2018-05-02T02:46:01.774Z,1.8
2018-05-02T02:47:04.415Z,1.8
2018-05-02T02:48:06.793Z,1.8
2018-05-02T02:49:09.858Z,1.8
2018-05-02T02:50:12.224Z,1.8
2018-05-02T02:51:14.719Z,1.8
2018-05-02T02:52:17.770Z,1.8
2018-05-02T02:53:20.529Z,1.8
2018-05-02T02:54:23.202Z,1.8
2018-05-02T02:55:25.993Z,1.8
2018-05-02T02:56:28.356Z,1.8
2018-05-02T02:57:31.021Z,1.8
2018-05-02T02:58:33.398Z,1.8
2018-05-02T02:59:35.773Z,1.8
2018-05-02T03:00:38.736Z,1.8
2018-05-02T03:01:41.489Z,1.7
2018-05-02T03:02:44.283Z,1.7
2018-05-02T03:03:46.934Z,1.7
2018-05-02T03:04:49.306Z,1.7
2018-05-02T03:05:51.688Z,1.7
2018-05-02T03:06:54.648Z,1.7
2018-05-02T03:07:57.287Z,1.8
2018-05-02T03:09:00.048Z,1.8
2018-05-02T03:10:03.113Z,1.7
2018-05-02T03:11:06.157Z,1.7
2018-05-02T03:12:08.517Z,1.7
2018-05-02T03:13:11.183Z,1.7
2018-05-02T03:14:13.931Z,1.7
2018-05-02T03:15:16.596Z,1.8
2018-05-02T03:16:18.971Z,1.8
2018-05-02T03:17:21.700Z,1.9
2018-05-02T03:18:24.077Z,1.9
2018-05-02T03:19:26.449Z,1.9
2018-05-02T03:20:29.100Z,1.9
2018-05-02T03:21:31.785Z,1.9
2018-05-02T03:22:34.152Z,1.9
2018-05-02T03:23:36.820Z,1.9
2018-05-02T03:24:39.463Z,1.9
2018-05-02T03:25:42.119Z,1.9
2018-05-02T03:26:44.493Z,1.9
2018-05-02T03:27:46.868Z,1.9
2018-05-02T03:28:49.240Z,1.9
2018-05-02T03:29:51.611Z,1.9
2018-05-02T03:30:54.281Z,1.9
2018-05-02T03:31:56.655Z,1.9
2018-05-02T03:32:59.411Z,1.9
2018-05-02T03:34:02.052Z,2
2018-05-02T03:35:04.427Z,2
2018-05-02T03:36:06.797Z,2
2018-05-02T03:37:09.165Z,2
2018-05-02T03:38:11.547Z,2
2018-05-02T03:39:14.202Z,2
2018-05-02T03:40:16.574Z,2
2018-05-02T03:41:19.631Z,2.1
2018-05-02T03:42:22.004Z,2.1
2018-05-02T03:43:24.649Z,2.2
2018-05-02T03:44:27.302Z,2.2
2018-05-02T03:45:29.958Z,2.2
2018-05-02T03:46:32.614Z,2.2
2018-05-02T03:47:34.974Z,2.2
2018-05-02T03:48:37.345Z,2.2
2018-05-02T03:49:40.001Z,2.2
2018-05-02T03:50:42.658Z,2.2
2018-05-02T03:51:45.031Z,2.3
2018-05-02T03:52:47.687Z,2.3
2018-05-02T03:53:50.058Z,2.3
2018-05-02T03:54:52.439Z,2.3
2018-05-02T03:55:55.079Z,2.3
2018-05-02T03:56:57.465Z,2.3
2018-05-02T03:57:59.820Z,2.4
2018-05-02T03:59:02.206Z,2.5
2018-05-02T04:00:04.583Z,2.4
2018-05-02T04:01:06.955Z,2.4
2018-05-02T04:02:09.326Z,2.4
2018-05-02T04:03:11.703Z,2.5
2018-05-02T04:04:14.343Z,2.5
2018-05-02T04:05:16.725Z,2.4
2018-05-02T04:06:19.769Z,2.5
2018-05-02T04:07:22.128Z,2.5
2018-05-02T04:08:24.787Z,2.5
2018-05-02T04:09:27.157Z,2.5
2018-05-02T04:10:29.525Z,2.5
2018-05-02T04:11:31.897Z,2.5
2018-05-02T04:12:34.283Z,2.5
2018-05-02T04:13:36.655Z,2.5
2018-05-02T04:14:39.298Z,2.5
2018-05-02T04:15:41.946Z,2.5
2018-05-02T04:16:44.325Z,2.5
2018-05-02T04:17:46.692Z,2.5
2018-05-02T04:18:49.927Z,2.5
2018-05-02T04:19:52.200Z,2.5
2018-05-02T04:20:54.857Z,2.5
2018-05-02T04:21:57.238Z,2.6
2018-05-02T04:22:59.609Z,2.6
2018-05-02T04:24:02.265Z,2.7
2018-05-02T04:25:04.625Z,2.7
2018-05-02T04:26:07.474Z,2.7
2018-05-02T04:27:10.176Z,2.7
2018-05-02T04:28:12.548Z,2.7
2018-05-02T04:29:15.197Z,2.7
2018-05-02T04:30:17.571Z,2.8
2018-05-02T04:31:19.959Z,2.8
2018-05-02T04:32:22.907Z,2.8
2018-05-02T04:33:25.562Z,2.8
2018-05-02T04:34:27.934Z,2.9
2018-05-02T04:35:30.585Z,2.9
2018-05-02T04:36:33.350Z,3
2018-05-02T04:37:35.725Z,3
2018-05-02T04:38:38.085Z,3
2018-05-02T04:39:40.739Z,3
2018-05-02T04:40:43.122Z,3
2018-05-02T04:41:45.773Z,3
2018-05-02T04:42:48.147Z,3.1
2018-05-02T04:43:50.522Z,3.1
2018-05-02T04:44:52.887Z,3.1
2018-05-02T04:45:55.252Z,3.2
2018-05-02T04:46:57.620Z,3.2
2018-05-02T04:48:00.003Z,3.2
2018-05-02T04:49:02.378Z,3.3
2018-05-02T04:50:04.755Z,3.3
2018-05-02T04:51:07.131Z,3.4
2018-05-02T04:52:09.786Z,3.5
2018-05-02T04:53:12.172Z,3.5
2018-05-02T04:54:14.542Z,3.5
2018-05-02T04:55:17.224Z,3.6
2018-05-02T04:56:19.903Z,3.6
2018-05-02T04:57:22.284Z,3.6
2018-05-02T04:58:24.661Z,3.7
2018-05-02T04:59:27.090Z,3.7
2018-05-02T05:00:29.750Z,3.7
2018-05-02T05:01:32.120Z,3.8
2018-05-02T05:02:34.787Z,3.8
2018-05-02T05:03:37.157Z,3.9
2018-05-02T05:04:39.833Z,3.9
2018-05-02T05:05:42.212Z,3.9
2018-05-02T05:06:45.488Z,4
2018-05-02T05:07:47.865Z,4
2018-05-02T05:08:50.624Z,4.1
2018-05-02T05:09:52.992Z,4.1
2018-05-02T05:10:55.354Z,4.1
2018-05-02T05:11:57.734Z,4.2
2018-05-02T05:13:00.383Z,4.2
2018-05-02T05:14:02.750Z,4.3
2018-05-02T05:15:05.407Z,4.3
2018-05-02T05:16:07.775Z,4.3
2018-05-02T05:17:10.532Z,4.4
2018-05-02T05:18:12.918Z,4.5
2018-05-02T05:19:15.277Z,4.5
2018-05-02T05:20:17.654Z,4.6
2018-05-02T05:21:20.029Z,4.6
2018-05-02T05:22:22.695Z,4.6
2018-05-02T05:23:25.072Z,4.7
2018-05-02T05:24:27.448Z,4.8
2018-05-02T05:25:30.101Z,4.8
2018-05-02T05:26:32.865Z,4.9
2018-05-02T05:27:35.239Z,4.9
2018-05-02T05:28:37.612Z,5
2018-05-02T05:29:39.976Z,5.1
2018-05-02T05:30:42.929Z,5.1
2018-05-02T05:31:45.303Z,5.2
2018-05-02T05:32:47.967Z,5.3
2018-05-02T05:33:50.339Z,5.3
2018-05-02T05:34:52.716Z,5.4
2018-05-02T05:35:55.083Z,5.4
2018-05-02T05:36:57.464Z,5.5
2018-05-02T05:37:59.827Z,5.5
2018-05-02T05:39:02.200Z,5.6
2018-05-02T05:40:04.570Z,5.6
2018-05-02T05:41:06.943Z,5.7
2018-05-02T05:42:09.315Z,5.7
2018-05-02T05:43:11.674Z,5.7
2018-05-02T05:44:14.338Z,5.7
2018-05-02T05:45:16.721Z,5.7
2018-05-02T05:46:19.094Z,5.7
2018-05-02T05:47:21.469Z,5.7
2018-05-02T05:48:24.123Z,5.8
2018-05-02T05:49:26.793Z,5.8
2018-05-02T05:50:29.175Z,5.8
2018-05-02T05:51:31.539Z,5.8
2018-05-02T05:52:33.899Z,5.8
2018-05-02T05:53:36.281Z,5.8
2018-05-02T05:54:39.047Z,5.8
2018-05-02T05:55:41.696Z,5.8
2018-05-02T05:56:44.456Z,5.8
2018-05-02T05:57:47.132Z,5.8
2018-05-02T05:58:49.790Z,5.8
2018-05-02T05:59:52.735Z,5.8
2018-05-02T06:00:56.310Z,5.8
2018-05-02T06:01:58.690Z,5.8
2018-05-02T06:03:01.071Z,5.9
2018-05-02T06:04:03.441Z,5.9
2018-05-02T06:05:05.885Z,5.9
2018-05-02T06:06:08.210Z,5.9
2018-05-02T06:07:10.578Z,5.9
2018-05-02T06:08:12.948Z,6
2018-05-02T06:09:15.326Z,6
2018-05-02T06:10:17.706Z,6
2018-05-02T06:11:20.083Z,6.1
2018-05-02T06:12:22.455Z,6.1
2018-05-02T06:13:24.830Z,6.1
2018-05-02T06:14:27.211Z,6.2
2018-05-02T06:15:29.861Z,6.2
2018-05-02T06:16:32.260Z,6.2
2018-05-02T06:17:35.005Z,6.3
2018-05-02T06:18:37.689Z,6.3
2018-05-02T06:19:40.058Z,6.4
2018-05-02T06:20:42.712Z,6.4
2018-05-02T06:21:45.090Z,6.4
2018-05-02T06:22:47.464Z,6.5
2018-05-02T06:23:50.115Z,6.6
2018-05-02T06:24:52.505Z,6.6
2018-05-02T06:25:54.877Z,6.7
2018-05-02T06:26:57.639Z,6.7
2018-05-02T06:28:00.024Z,6.7
2018-05-02T06:29:02.398Z,6.8
2018-05-02T06:30:04.778Z,6.8
2018-05-02T06:31:07.149Z,6.9
2018-05-02T06:32:09.525Z,6.9
2018-05-02T06:33:11.902Z,6.9
2018-05-02T06:34:14.279Z,6.9
2018-05-02T06:35:17.205Z,7
2018-05-02T06:36:19.870Z,7.1
2018-05-02T06:37:22.239Z,7.1
2018-05-02T06:38:24.907Z,7.1
2018-05-02T06:39:27.273Z,7.1
2018-05-02T06:40:29.660Z,7.1
2018-05-02T06:41:32.043Z,7.2
2018-05-02T06:42:34.801Z,7.2
2018-05-02T06:43:37.465Z,7.2
2018-05-02T06:44:39.836Z,7.3
2018-05-02T06:45:42.493Z,7.3
2018-05-02T06:46:44.865Z,7.4
2018-05-02T06:47:47.239Z,7.5
2018-05-02T06:48:49.889Z,7.4
2018-05-02T06:49:52.266Z,7.4
2018-05-02T06:50:55.041Z,7.5
2018-05-02T06:51:57.414Z,7.6
2018-05-02T06:52:59.790Z,7.7
2018-05-02T06:54:02.559Z,7.7
2018-05-02T06:55:04.934Z,7.6
2018-05-02T06:56:07.597Z,7.7
2018-05-02T06:57:09.972Z,7.7
2018-05-02T06:58:12.343Z,7.8
2018-05-02T06:59:14.726Z,7.9
2018-05-02T07:00:17.094Z,7.9
2018-05-02T07:01:19.456Z,8
2018-05-02T07:02:21.836Z,8
2018-05-02T07:03:24.213Z,8.1
2018-05-02T07:04:26.585Z,8.2
2018-05-02T07:05:28.961Z,8.1
2018-05-02T07:06:31.908Z,8.2
2018-05-02T07:07:34.284Z,8.2
2018-05-02T07:08:36.966Z,8.3
2018-05-02T07:09:39.635Z,8.3
2018-05-02T07:10:42.013Z,8.3
2018-05-02T07:11:44.671Z,8.5
2018-05-02T07:12:47.050Z,8.6
2018-05-02T07:13:49.703Z,8.6
2018-05-02T07:14:52.084Z,8.6
2018-05-02T07:15:54.473Z,8.7
2018-05-02T07:16:56.837Z,8.8
2018-05-02T07:17:59.221Z,8.9
2018-05-02T07:19:01.613Z,9
2018-05-02T07:20:04.002Z,9.1
2018-05-02T07:21:06.382Z,9.2
2018-05-02T07:22:08.762Z,9.2
2018-05-02T07:23:11.431Z,9.1
2018-05-02T07:24:14.218Z,9.1
2018-05-02T07:25:16.600Z,9.3
2018-05-02T07:26:18.970Z,9.3
2018-05-02T07:27:21.413Z,9.3
2018-05-02T07:28:24.214Z,9.4
2018-05-02T07:29:26.599Z,9.5
2018-05-02T07:30:28.971Z,9.5
2018-05-02T07:31:31.353Z,9.6
2018-05-02T07:32:34.011Z,9.8
2018-05-02T07:33:36.547Z,9.9
2018-05-02T07:34:38.909Z,9.9
2018-05-02T07:35:41.386Z,10
2018-05-02T07:36:43.791Z,10
2018-05-02T07:37:46.197Z,10.1
2018-05-02T07:38:48.577Z,10.1
2018-05-02T07:39:51.291Z,10.1
2018-05-02T07:40:53.683Z,10.1
2018-05-02T07:41:56.086Z,10.1
2018-05-02T07:42:59.334Z,10.2
2018-05-02T07:44:01.732Z,10.3
2018-05-02T07:45:04.124Z,10.3
2018-05-02T07:46:06.506Z,10.4
2018-05-02T07:47:09.282Z,10.4
2018-05-02T07:48:11.992Z,10.5
2018-05-02T07:49:14.373Z,10.5
2018-05-02T07:50:16.811Z,10.5
2018-05-02T07:51:19.749Z,10.5
2018-05-02T07:52:22.676Z,10.6
2018-05-02T07:53:25.074Z,10.8
2018-05-02T07:54:27.457Z,10.9
2018-05-02T07:55:30.131Z,11
2018-05-02T07:56:33.118Z,10.9
2018-05-02T07:57:35.921Z,11
2018-05-02T07:58:38.553Z,11
2018-05-02T07:59:40.933Z,11
2018-05-02T08:00:43.654Z,11
2018-05-02T08:01:46.323Z,11
2018-05-02T08:02:48.772Z,11.1
2018-05-02T08:03:51.575Z,11.2
2018-05-02T08:04:54.263Z,11.1
2018-05-02T08:05:56.924Z,11.1
2018-05-02T08:06:59.302Z,11.2
2018-05-02T08:08:02.395Z,11.3
2018-05-02T08:09:04.769Z,11.3
2018-05-02T08:10:07.149Z,11.2
2018-05-02T08:11:09.611Z,11.2
2018-05-02T08:12:11.990Z,11.3
2018-05-02T08:13:14.337Z,11.5
2018-05-02T08:14:17.000Z,11.6
2018-05-02T08:15:19.415Z,11.5
2018-05-02T08:16:21.847Z,11.6
2018-05-02T08:17:24.460Z,11.4
2018-05-02T08:18:26.843Z,11.5
2018-05-02T08:19:29.224Z,11.5
2018-05-02T08:20:31.623Z,11.6
2018-05-02T08:21:34.002Z,11.6
2018-05-02T08:22:36.672Z,11.6
2018-05-02T08:23:39.066Z,11.5
2018-05-02T08:24:41.447Z,11.4
2018-05-02T08:25:44.129Z,11.6
2018-05-02T08:26:47.623Z,11.6
2018-05-02T08:27:50.050Z,11.8
2018-05-02T08:28:52.503Z,11.9
2018-05-02T08:29:54.920Z,11.9
2018-05-02T08:30:57.657Z,11.8
2018-05-02T08:32:00.031Z,11.9
2018-05-02T08:33:02.481Z,11.9
2018-05-02T08:34:04.858Z,12
2018-05-02T08:35:07.238Z,12
2018-05-02T08:36:09.909Z,12.1
2018-05-02T08:37:12.853Z,12.1
2018-05-02T08:38:15.518Z,12.2
2018-05-02T08:39:18.328Z,12.4
2018-05-02T08:40:20.707Z,12.6
2018-05-02T08:41:23.080Z,12.8
2018-05-02T08:42:25.461Z,13.1
2018-05-02T08:43:27.842Z,13.2
2018-05-02T08:44:30.219Z,13.4
2018-05-02T08:45:32.750Z,13.6
2018-05-02T08:46:35.402Z,13.9
2018-05-02T08:47:37.788Z,13.7
2018-05-02T08:48:40.186Z,13.8
2018-05-02T08:49:42.565Z,13.6
2018-05-02T08:50:45.250Z,13.5
2018-05-02T08:51:47.698Z,13.4
2018-05-02T08:52:50.083Z,13.5
2018-05-02T08:53:52.753Z,13.5
2018-05-02T08:54:55.133Z,13.7
2018-05-02T08:55:57.506Z,13.8
2018-05-02T08:57:00.181Z,13.7
2018-05-02T08:58:02.833Z,13.5
2018-05-02T08:59:05.213Z,13.5
2018-05-02T09:00:07.600Z,13.5
2018-05-02T09:01:10.258Z,13.5
2018-05-02T09:02:12.638Z,13.4
2018-05-02T09:03:15.034Z,13.5
2018-05-02T09:04:17.473Z,13.4
2018-05-02T09:05:19.797Z,13.3
2018-05-02T09:06:22.184Z,13.2
2018-05-02T09:07:24.572Z,13.2
2018-05-02T09:08:26.955Z,13.1
2018-05-02T09:09:29.333Z,13.1
2018-05-02T09:10:31.716Z,12.9
2018-05-02T09:11:34.093Z,12.9
2018-05-02T09:12:36.488Z,12.8
2018-05-02T09:13:38.868Z,12.8
2018-05-02T09:14:41.266Z,12.6
2018-05-02T09:15:43.648Z,12.8
2018-05-02T09:16:46.036Z,12.7
2018-05-02T09:17:48.427Z,12.6
2018-05-02T09:18:51.087Z,12.7
2018-05-02T09:19:53.477Z,12.8
2018-05-02T09:20:55.860Z,12.8
2018-05-02T09:21:58.508Z,12.9
2018-05-02T09:23:00.895Z,12.8
2018-05-02T09:24:03.282Z,12.8
2018-05-02T09:25:05.945Z,12.8
2018-05-02T09:26:08.621Z,12.9
2018-05-02T09:27:11.286Z,12.9
2018-05-02T09:28:13.667Z,12.9
2018-05-02T09:29:16.064Z,13
2018-05-02T09:30:18.443Z,13.2
2018-05-02T09:31:20.831Z,13.3
2018-05-02T09:32:23.226Z,13.4
2018-05-02T09:33:25.890Z,13.6
2018-05-02T09:34:28.566Z,13.6
2018-05-02T09:35:31.373Z,13.7
2018-05-02T09:36:34.401Z,13.8
2018-05-02T09:37:37.102Z,13.9
2018-05-02T09:38:39.484Z,13.9
2018-05-02T09:39:41.866Z,13.7
2018-05-02T09:40:44.256Z,13.7
2018-05-02T09:41:46.641Z,13.9
2018-05-02T09:42:49.031Z,13.8
2018-05-02T09:43:51.459Z,13.7
2018-05-02T09:44:53.865Z,13.7
2018-05-02T09:45:56.246Z,13.7
2018-05-02T09:46:58.637Z,13.9
2018-05-02T09:48:01.007Z,14.1
2018-05-02T09:49:03.392Z,14.3
2018-05-02T09:50:05.781Z,14.3
2018-05-02T09:51:08.477Z,14.4
2018-05-02T09:52:10.869Z,14.4
2018-05-02T09:53:13.257Z,14.6
2018-05-02T09:54:16.064Z,14.8
2018-05-02T09:55:18.454Z,14.7
2018-05-02T09:56:20.844Z,14.6
2018-05-02T09:57:23.241Z,14.4
2018-05-02T09:58:25.620Z,14
2018-05-02T09:59:28.012Z,14.3
2018-05-02T10:00:30.769Z,14.4
2018-05-02T10:01:33.169Z,14.6
2018-05-02T10:02:35.842Z,14.9
2018-05-02T10:03:38.231Z,15
2018-05-02T10:04:40.632Z,15.1
2018-05-02T10:05:43.021Z,15.1
2018-05-02T10:06:46.092Z,15.4
2018-05-02T10:07:48.475Z,15.6
2018-05-02T10:08:51.635Z,15.6
2018-05-02T10:09:54.024Z,15.4
2018-05-02T10:10:56.412Z,15.5
2018-05-02T10:11:58.813Z,15.4
2018-05-02T10:13:01.196Z,15.6
2018-05-02T10:14:03.908Z,15.8
2018-05-02T10:15:06.676Z,15.9
2018-05-02T10:16:09.070Z,15.9
2018-05-02T10:17:11.455Z,15.9
2018-05-02T10:18:14.145Z,15.8
2018-05-02T10:19:16.815Z,15.8
2018-05-02T10:20:19.223Z,16
2018-05-02T10:21:22.195Z,16
2018-05-02T10:22:24.868Z,16.2
2018-05-02T10:23:27.269Z,16.3
2018-05-02T10:24:29.659Z,16.4
2018-05-02T10:25:32.338Z,16.6
2018-05-02T10:26:34.739Z,16.7
2018-05-02T10:27:37.133Z,17
2018-05-02T10:28:39.522Z,17
2018-05-02T10:29:41.919Z,16.9
2018-05-02T10:30:44.319Z,17
2018-05-02T10:31:47.094Z,16.8
2018-05-02T10:32:49.492Z,16.9
2018-05-02T10:33:51.879Z,16.9
2018-05-02T10:34:54.275Z,17
2018-05-02T10:35:56.691Z,16.7
2018-05-02T10:36:59.593Z,16.5
2018-05-02T10:38:02.616Z,16.6
2018-05-02T10:39:05.013Z,16.7
2018-05-02T10:40:07.409Z,16.6
2018-05-02T10:41:09.805Z,16.7
2018-05-02T10:42:12.195Z,17
2018-05-02T10:43:14.659Z,16.9
2018-05-02T10:44:16.966Z,17.3
2018-05-02T10:45:19.371Z,17.3
2018-05-02T10:46:21.763Z,17.5
2018-05-02T10:47:24.146Z,17.3
2018-05-02T10:48:26.550Z,17.3
2018-05-02T10:49:29.232Z,17.8
2018-05-02T10:50:32.103Z,17.6
2018-05-02T10:51:34.425Z,17.9
2018-05-02T10:52:37.206Z,17.9
2018-05-02T10:53:39.597Z,17.9
2018-05-02T10:54:42.277Z,17.7
2018-05-02T10:55:44.675Z,17.7
2018-05-02T10:56:47.076Z,17.6
2018-05-02T10:57:49.479Z,17.4
2018-05-02T10:58:51.868Z,17.3
2018-05-02T10:59:54.284Z,17.6
2018-05-02T11:00:56.664Z,17.5
2018-05-02T11:01:59.043Z,17.8
2018-05-02T11:03:01.436Z,17.4
2018-05-02T11:04:04.389Z,17.8
2018-05-02T11:05:06.778Z,17.9
2018-05-02T11:06:09.173Z,18.1
2018-05-02T11:07:11.561Z,18.1
2018-05-02T11:08:13.961Z,18.2
2018-05-02T11:09:16.630Z,18
2018-05-02T11:10:19.307Z,18.5
2018-05-02T11:11:21.708Z,18.5
2018-05-02T11:12:24.094Z,18.4
2018-05-02T11:13:26.485Z,18.3
2018-05-02T11:14:29.161Z,18
2018-05-02T11:15:31.558Z,17.7
2018-05-02T11:16:33.953Z,17.8
2018-05-02T11:17:36.351Z,18.2
2018-05-02T11:18:39.409Z,18.1
2018-05-02T11:19:41.804Z,17.9
2018-05-02T11:20:44.204Z,17.5
2018-05-02T11:21:47.259Z,17.6
2018-05-02T11:22:49.655Z,17.8
2018-05-02T11:23:52.044Z,17.6
2018-05-02T11:24:54.720Z,17.8
2018-05-02T11:25:57.124Z,17.7
2018-05-02T11:26:59.511Z,17.9
2018-05-02T11:28:01.906Z,17.6
2018-05-02T11:29:04.303Z,17.8
2018-05-02T11:30:06.698Z,17.9
2018-05-02T11:31:09.757Z,17.9
2018-05-02T11:32:12.532Z,17.8
2018-05-02T11:33:14.910Z,18
2018-05-02T11:34:17.314Z,17.4
2018-05-02T11:35:20.098Z,17.2
2018-05-02T11:36:22.492Z,17.3
2018-05-02T11:37:25.279Z,17.7
2018-05-02T11:38:27.672Z,17.9
2018-05-02T11:39:30.447Z,17.8
2018-05-02T11:40:33.295Z,17.7
2018-05-02T11:41:35.607Z,17.1
2018-05-02T11:42:38.269Z,17.3
2018-05-02T11:43:41.449Z,17.6
2018-05-02T11:44:44.239Z,17.6
2018-05-02T11:45:46.630Z,17.1
2018-05-02T11:46:49.040Z,17.3
2018-05-02T11:47:51.742Z,17.3
2018-05-02T11:48:54.694Z,17.2
2018-05-02T11:49:57.504Z,17.3
2018-05-02T11:50:59.878Z,17.3
2018-05-02T11:52:02.560Z,17.3
2018-05-02T11:53:05.335Z,17.2
2018-05-02T11:54:08.283Z,17.4
2018-05-02T11:55:10.675Z,17.5
2018-05-02T11:56:13.066Z,17.5
2018-05-02T11:57:15.462Z,17.5
2018-05-02T11:58:18.146Z,17.6
2018-05-02T11:59:20.541Z,17.6
2018-05-02T12:00:22.931Z,17.6
2018-05-02T12:01:25.336Z,17.4
2018-05-02T12:02:27.728Z,16.9
2018-05-02T12:03:30.171Z,17.4
2018-05-02T12:04:32.535Z,17.5
2018-05-02T12:05:34.930Z,17.6
2018-05-02T12:06:37.321Z,17.6
2018-05-02T12:07:39.719Z,17.3
2018-05-02T12:08:42.124Z,17.5
2018-05-02T12:09:44.899Z,17.5
2018-05-02T12:10:47.347Z,17.4
2018-05-02T12:11:49.773Z,17
2018-05-02T12:12:52.788Z,17.5
2018-05-02T12:13:55.663Z,17.6
2018-05-02T12:14:58.416Z,17.5
2018-05-02T12:16:00.836Z,17.5
2018-05-02T12:17:03.244Z,17.5
2018-05-02T12:18:05.703Z,17.3
2018-05-02T12:19:08.686Z,17.1
2018-05-02T12:20:11.166Z,17.1
2018-05-02T12:21:13.921Z,16.9
2018-05-02T12:22:16.672Z,17
2018-05-02T12:23:19.138Z,17
2018-05-02T12:24:21.519Z,17
2018-05-02T12:25:23.923Z,16.8
2018-05-02T12:26:26.352Z,17
2018-05-02T12:27:28.755Z,17.1
2018-05-02T12:28:31.168Z,17.2
2018-05-02T12:29:33.790Z,17.1
2018-05-02T12:30:36.498Z,17.4
2018-05-02T12:31:38.900Z,17.5
2018-05-02T12:32:41.318Z,17.2
2018-05-02T12:33:44.021Z,17.3
2018-05-02T12:34:46.454Z,17.3
2018-05-02T12:35:48.842Z,16.9
2018-05-02T12:36:51.662Z,17.3
2018-05-02T12:37:54.070Z,17.1
2018-05-02T12:38:56.859Z,17.1
2018-05-02T12:39:59.265Z,17.1
2018-05-02T12:41:02.347Z,17.3
2018-05-02T12:42:04.795Z,17.5
2018-05-02T12:43:07.199Z,17.5
2018-05-02T12:44:09.629Z,17.6
2018-05-02T12:45:12.314Z,17.7
2018-05-02T12:46:14.743Z,17.7
2018-05-02T12:47:17.416Z,17.8
2018-05-02T12:48:20.230Z,17.7
2018-05-02T12:49:22.660Z,17.6
2018-05-02T12:50:25.047Z,17.6
2018-05-02T12:51:27.454Z,17.7
2018-05-02T12:52:29.852Z,17.9
2018-05-02T12:53:32.249Z,18
2018-05-02T12:54:34.696Z,17.9
2018-05-02T12:55:37.157Z,18
2018-05-02T12:56:39.611Z,18.1
2018-05-02T12:57:42.295Z,17.8
2018-05-02T12:58:44.699Z,17.7
2018-05-02T12:59:47.087Z,17.8
2018-05-02T13:00:49.811Z,17.8
2018-05-02T13:01:52.200Z,17.6
2018-05-02T13:02:54.990Z,17.8
2018-05-02T13:03:57.386Z,18.1
2018-05-02T13:04:59.779Z,18.2
2018-05-02T13:06:02.161Z,18.5
2018-05-02T13:07:04.855Z,18.2
2018-05-02T13:08:07.544Z,17.7
2018-05-02T13:09:09.938Z,17.6
2018-05-02T13:10:12.713Z,17.9
2018-05-02T13:11:15.117Z,18
2018-05-02T13:12:17.519Z,18.1
2018-05-02T13:13:19.930Z,17.8
2018-05-02T13:14:22.317Z,17.9
2018-05-02T13:15:24.715Z,17.5
2018-05-02T13:16:27.183Z,17.7
2018-05-02T13:17:29.578Z,17.5
2018-05-02T13:18:31.979Z,17.3
2018-05-02T13:19:34.369Z,17.3
2018-05-02T13:20:36.771Z,17.4
2018-05-02T13:21:39.222Z,17.4
2018-05-02T13:22:41.623Z,17.3
2018-05-02T13:23:44.026Z,17.5
2018-05-02T13:24:46.406Z,17.6
2018-05-02T13:25:48.908Z,17.3
2018-05-02T13:26:51.311Z,17.3
2018-05-02T13:27:54.377Z,17.6
2018-05-02T13:28:56.774Z,17.8
2018-05-02T13:29:59.736Z,17.4
2018-05-02T13:31:02.789Z,17.3
2018-05-02T13:32:05.201Z,17.1
2018-05-02T13:33:07.767Z,17.2
2018-05-02T13:34:10.442Z,17.1
2018-05-02T13:35:12.838Z,16.9
2018-05-02T13:36:15.231Z,16.9
2018-05-02T13:37:17.705Z,16.7
2018-05-02T13:38:20.482Z,16.6
2018-05-02T13:39:22.860Z,16.4
2018-05-02T13:40:25.582Z,16.7
2018-05-02T13:41:28.431Z,16.7
2018-05-02T13:42:30.830Z,16.7
2018-05-02T13:43:33.232Z,16.5
2018-05-02T13:44:35.624Z,16.4
2018-05-02T13:45:38.016Z,16.5
2018-05-02T13:46:40.422Z,16.5
2018-05-02T13:47:42.812Z,16.4
2018-05-02T13:48:45.209Z,16.5
2018-05-02T13:49:47.890Z,16.4
2018-05-02T13:50:50.366Z,16.5
2018-05-02T13:51:52.765Z,16.5
2018-05-02T13:52:55.165Z,16.4
2018-05-02T13:53:57.554Z,16.4
2018-05-02T13:54:59.961Z,16.5
2018-05-02T13:56:02.637Z,16.4
2018-05-02T13:57:05.027Z,16.5
2018-05-02T13:58:07.441Z,16.2
2018-05-02T13:59:09.834Z,16.2
2018-05-02T14:00:12.224Z,16.4
2018-05-02T14:01:14.618Z,16.2
2018-05-02T14:02:17.300Z,16.1
2018-05-02T14:03:19.982Z,16.2
2018-05-02T14:04:22.663Z,16.1
2018-05-02T14:05:25.068Z,16.3
2018-05-02T14:06:27.748Z,16.3
2018-05-02T14:07:30.420Z,16.3
2018-05-02T14:08:33.788Z,16.3
2018-05-02T14:09:36.496Z,16.4
2018-05-02T14:10:38.886Z,16.5
2018-05-02T14:11:41.287Z,16.4